Plainfield, New York
Current Conditions -  °F | °C
As of 12:53 PM on Friday 21 Nov 2014 (Local Time) from KRME Reporting Station
Broken Clouds Broken Clouds  
Wind Chill: 13°   Ceiling: 4300
Heat Index: 25°   Visibility: 10mi
Dew Point: 15°   Wind: 15mph
Humidity: 66%   Direction: 290°WNW
Pressure: 30.33"   Gusts: NA
Location:  42.8676°N, 75.1875°W
Report Text: KRME 211753Z 29013KT 10SM FEW031 BKN043 M04/M09 A3033 RMK AO2 SLP277 60001 T10391094 11039 21061 51024
Loading
Personal Weather Stations






























Interactive Weather Map New forecast layout! Learn more

10-Day Weather Forecast

Advertisements
Track Severe Weather on mobile